Time;durP1;ratioP1;P1;durP2;ratioP2;P2;SDS_P1;SDS_P2;PMS_P1;PMS_P2;Temp;Humidity;BMP_temperature;BMP_pressure;BME280_temperature;BME280_humidity;BME280_pressure;Samples;Min_cycle;Max_cycle;Signal;HPM_P1;HPM_P2
2023/12/16 00:01:06;;;;;;;36.55;16.95;;;;;;;6.34;100.00;102272.22;4994307;28;20089;-83
2023/12/16 00:03:54;;;;;;;30.95;15.77;;;;;;;6.34;100.00;102267.31;4992658;28;20034;-80
2023/12/16 00:06:20;;;;;;;27.90;15.32;;;;;;;6.39;100.00;102260.41;4993519;28;20351;-82
2023/12/16 00:08:46;;;;;;;27.88;15.07;;;;;;;6.38;100.00;102265.28;4994354;28;20456;-81
2023/12/16 00:11:18;;;;;;;30.92;15.45;;;;;;;6.36;100.00;102255.56;4976463;28;20030;-79
2023/12/16 00:14:02;;;;;;;32.65;14.60;;;;;;;6.40;100.00;102250.66;4993584;28;20109;-80
2023/12/16 00:16:27;;;;;;;29.60;15.05;;;;;;;6.39;100.00;102257.56;4993702;28;20105;-80
2023/12/16 00:19:14;;;;;;;30.35;15.52;;;;;;;6.39;100.00;102261.22;5008158;28;20141;-79
2023/12/16 00:21:49;;;;;;;29.75;14.25;;;;;;;6.39;100.00;102266.06;4993375;28;20042;-81
2023/12/16 00:24:15;;;;;;;31.15;13.95;;;;;;;6.37;100.00;102246.63;4993922;28;20574;-81
2023/12/16 00:26:41;;;;;;;21.90;12.98;;;;;;;6.38;100.00;102250.28;4993987;28;20034;-79
2023/12/16 00:29:09;;;;;;;23.65;13.30;;;;;;;6.42;100.00;102248.22;4994466;28;20034;-79
2023/12/16 00:31:34;;;;;;;31.00;12.63;;;;;;;6.41;100.00;102255.13;4994172;28;20110;-80
2023/12/16 00:34:10;;;;;;;28.13;12.80;;;;;;;6.40;100.00;102254.31;4994225;28;20511;-79
2023/12/16 00:36:43;;;;;;;21.63;12.07;;;;;;;6.38;100.00;102259.63;4992717;28;20026;-81
2023/12/16 00:39:10;;;;;;;25.60;13.73;;;;;;;6.31;100.00;102248.28;4993150;28;20475;-79
2023/12/16 00:41:36;;;;;;;23.27;12.13;;;;;;;6.35;100.00;102268.94;4993144;28;20124;-79
2023/12/16 00:44:04;;;;;;;23.90;12.48;;;;;;;6.35;100.00;102265.28;4993327;28;20522;-79
2023/12/16 00:46:33;;;;;;;23.75;11.77;;;;;;;6.42;100.00;102277.44;4991799;28;20042;-79
2023/12/16 00:48:59;;;;;;;26.00;12.73;;;;;;;6.42;100.00;102277.44;4992887;28;20080;-79
2023/12/16 00:51:47;;;;;;;20.55;12.48;;;;;;;6.44;100.00;102272.13;4975373;28;20037;-78
2023/12/16 00:54:13;;;;;;;25.88;13.15;;;;;;;6.42;100.00;102259.59;4993626;28;20018;-79
2023/12/16 00:56:39;;;;;;;28.35;11.95;;;;;;;6.37;100.00;102268.53;5008186;28;20458;-79
2023/12/16 00:59:09;;;;;;;21.60;11.48;;;;;;;6.36;100.00;102279.09;4992724;28;20057;-79
2023/12/16 01:01:35;;;;;;;20.33;12.13;;;;;;;6.33;100.00;102276.28;4991263;28;20121;-82
2023/12/16 01:04:00;;;;;;;22.60;12.02;;;;;;;6.25;100.00;102264.94;4991582;28;20130;-80
2023/12/16 01:06:26;;;;;;;20.95;11.60;;;;;;;6.32;100.00;102269.78;4993282;28;20065;-78
2023/12/16 01:08:55;;;;;;;23.02;11.68;;;;;;;6.36;100.00;102283.94;4991764;28;20034;-78
2023/12/16 01:11:21;;;;;;;20.98;11.00;;;;;;;6.35;100.00;102282.34;4993912;28;20084;-79
2023/12/16 01:13:47;;;;;;;20.25;12.30;;;;;;;6.32;100.00;102272.63;4997856;28;20029;-81
2023/12/16 01:16:14;;;;;;;21.15;11.35;;;;;;;6.34;100.00;102284.38;4998994;28;20080;-80
2023/12/16 01:18:41;;;;;;;22.17;11.57;;;;;;;6.28;100.00;102283.19;4997643;28;20380;-79
2023/12/16 01:21:08;;;;;;;21.15;11.90;;;;;;;6.25;100.00;102284.78;5000502;28;20022;-80
2023/12/16 01:23:36;;;;;;;24.65;12.57;;;;;;;6.25;100.00;102264.94;4997981;28;20494;-79
2023/12/16 01:26:08;;;;;;;21.85;10.63;;;;;;;6.40;100.00;102279.06;4996545;28;20029;-77
2023/12/16 01:28:39;;;;;;;20.48;11.88;;;;;;;6.40;100.00;102276.22;4996750;28;20029;-78
2023/12/16 01:31:05;;;;;;;24.92;12.77;;;;;;;6.39;100.00;102300.16;4996460;28;20105;-79
2023/12/16 01:33:39;;;;;;;22.98;12.02;;;;;;;6.34;100.00;102283.59;4996590;28;20118;-79
2023/12/16 01:36:10;;;;;;;24.52;11.60;;;;;;;6.34;100.00;102275.84;4996331;28;20036;-79
2023/12/16 01:38:36;;;;;;;28.05;11.35;;;;;;;6.34;100.00;102281.53;4996604;28;20026;-80
2023/12/16 01:41:03;;;;;;;21.20;11.80;;;;;;;6.29;100.00;102262.06;4995768;28;20373;-78
2023/12/16 01:43:29;;;;;;;21.02;11.63;;;;;;;6.33;100.00;102262.09;4997615;28;20041;-80
2023/12/16 01:46:01;;;;;;;21.92;11.90;;;;;;;6.41;100.00;102275.00;4996310;28;20034;-79
2023/12/16 01:48:28;;;;;;;31.00;13.50;;;;;;;6.38;100.00;102279.50;4980893;28;20053;-78
2023/12/16 01:50:54;;;;;;;20.65;11.38;;;;;;;6.34;100.00;102272.22;4998353;28;20077;-76
2023/12/16 01:53:20;;;;;;;21.55;10.90;;;;;;;6.29;100.00;102273.41;4998136;28;20030;-75
2023/12/16 01:55:54;;;;;;;31.00;12.60;;;;;;;6.27;100.00;102267.34;4997687;28;20055;-75
2023/12/16 01:58:21;;;;;;;20.92;11.60;;;;;;;6.28;100.00;102265.31;4996245;28;20026;-74
2023/12/16 02:00:48;;;;;;;24.05;11.75;;;;;;;6.27;100.00;102287.22;4996182;28;20537;-75
2023/12/16 02:03:15;;;;;;;22.80;11.15;;;;;;;6.32;100.00;102275.47;4997448;28;20022;-75
2023/12/16 02:05:41;;;;;;;27.23;11.05;;;;;;;6.34;100.00;102284.38;4997325;28;20409;-74
2023/12/16 02:08:07;;;;;;;20.13;11.27;;;;;;;6.39;100.00;102274.59;4996003;28;20034;-76
2023/12/16 02:10:35;;;;;;;21.83;10.82;;;;;;;6.37;100.00;102283.56;4997930;28;20045;-74
2023/12/16 02:13:12;;;;;;;21.98;11.65;;;;;;;6.44;100.00;102302.56;4997971;28;20072;-76
2023/12/16 02:15:39;;;;;;;24.17;12.05;;;;;;;6.45;100.00;102307.81;4998302;28;20049;-73
2023/12/16 02:18:05;;;;;;;29.17;12.63;;;;;;;6.42;100.00;102314.34;4997132;28;20527;-75
2023/12/16 02:20:32;;;;;;;22.95;11.82;;;;;;;6.41;100.00;102309.88;4997236;28;20049;-75
2023/12/16 02:22:59;;;;;;;27.35;12.02;;;;;;;6.40;100.00;102305.41;4995759;28;20034;-75
2023/12/16 02:25:29;;;;;;;23.08;11.75;;;;;;;6.35;100.00;102305.03;5011843;28;20050;-76
2023/12/16 02:27:55;;;;;;;27.08;11.52;;;;;;;6.31;100.00;102299.41;4979350;28;20451;-76
2023/12/16 02:30:24;;;;;;;23.13;11.63;;;;;;;6.28;100.00;102305.88;4996526;28;20081;-75
2023/12/16 02:32:52;;;;;;;27.98;12.93;;;;;;;6.30;100.00;102299.81;4978457;28;20030;-75
2023/12/16 02:35:18;;;;;;;27.38;12.98;;;;;;;6.25;100.00;102303.84;4995622;28;20034;-77
2023/12/16 02:37:53;;;;;;;25.83;12.30;;;;;;;6.27;100.00;102303.44;4994567;28;20034;-75
2023/12/16 02:40:42;;;;;;;23.60;12.80;;;;;;;6.25;100.00;102309.53;4995580;28;20022;-76
2023/12/16 02:43:17;;;;;;;31.10;13.90;;;;;;;6.25;100.00;102303.84;4994821;28;20045;-78
2023/12/16 02:45:43;;;;;;;24.98;13.00;;;;;;;6.28;100.00;102305.88;4994218;28;20025;-73
2023/12/16 02:48:08;;;;;;;29.65;13.23;;;;;;;6.25;100.00;102303.84;4995508;28;20026;-75
2023/12/16 02:50:48;;;;;;;31.35;13.48;;;;;;;6.27;100.00;102303.44;4995772;28;20076;-75
2023/12/16 02:53:13;;;;;;;34.90;14.55;;;;;;;6.29;100.00;102301.03;4995247;28;20062;-76
2023/12/16 02:55:44;;;;;;;28.42;12.52;;;;;;;6.32;100.00;102309.53;4995447;28;20084;-76
2023/12/16 02:58:10;;;;;;;28.48;14.27;;;;;;;6.37;100.00;102297.75;4994719;28;20050;-75
2023/12/16 03:00:35;;;;;;;26.75;13.32;;;;;;;6.38;100.00;102299.38;4994826;28;20419;-75
2023/12/16 03:03:02;;;;;;;35.05;13.55;;;;;;;6.42;100.00;102287.97;4994746;28;20108;-75
2023/12/16 03:05:28;;;;;;;29.40;13.43;;;;;;;6.44;100.00;102297.69;4993982;28;20023;-75
2023/12/16 03:07:54;;;;;;;30.58;14.82;;;;;;;6.50;100.00;102303.75;4994789;28;20041;-76
2023/12/16 03:10:21;;;;;;;27.92;13.52;;;;;;;6.53;100.00;102300.91;4978254;28;20088;-76
2023/12/16 03:12:48;;;;;;;30.30;13.70;;;;;;;6.56;100.00;102287.88;4995623;28;20054;-76
2023/12/16 03:15:14;;;;;;;26.98;13.57;;;;;;;6.49;100.00;102294.41;4995796;28;20026;-75
2023/12/16 03:17:40;;;;;;;30.15;13.98;;;;;;;6.54;100.00;102293.97;4995657;28;20029;-77
2023/12/16 03:20:08;;;;;;;27.67;14.23;;;;;;;6.59;100.00;102298.41;4995704;28;20038;-75
2023/12/16 03:22:35;;;;;;;26.35;14.20;;;;;;;6.56;100.00;102294.38;4995577;28;20026;-74
2023/12/16 03:25:01;;;;;;;29.77;13.52;;;;;;;6.61;100.00;102293.13;4996047;28;20093;-76
2023/12/16 03:27:28;;;;;;;35.55;13.65;;;;;;;6.56;100.00;102299.25;4996123;28;20133;-76
2023/12/16 03:29:54;;;;;;;26.08;13.55;;;;;;;6.53;100.00;102300.09;4995842;28;20073;-76
2023/12/16 03:32:20;;;;;;;28.00;13.43;;;;;;;6.57;100.00;102303.69;5010474;28;20038;-76
2023/12/16 03:34:46;;;;;;;27.60;14.18;;;;;;;6.57;100.00;102306.53;4993750;28;20038;-76
2023/12/16 03:37:14;;;;;;;25.98;13.68;;;;;;;6.58;100.00;102296.81;4995219;28;20035;-76
2023/12/16 03:39:42;;;;;;;28.73;13.05;;;;;;;6.54;100.00;102296.00;4995126;28;20033;-76
2023/12/16 03:42:09;;;;;;;27.10;13.98;;;;;;;6.57;100.00;102298.84;4995245;28;20034;-77
2023/12/16 03:44:36;;;;;;;28.92;14.57;;;;;;;6.59;100.00;102316.25;4995060;28;20439;-78
2023/12/16 03:47:02;;;;;;;30.33;13.50;;;;;;;6.52;100.00;102316.31;4995132;28;20117;-78
2023/12/16 03:49:28;;;;;;;34.42;14.75;;;;;;;6.56;100.00;102327.63;4995401;28;20460;-76
2023/12/16 03:51:56;;;;;;;33.85;16.42;;;;;;;6.44;100.00;102326.06;4994898;28;20109;-75
2023/12/16 03:54:30;;;;;;;29.55;14.48;;;;;;;6.46;100.00;102320.81;4993595;28;20487;-76
2023/12/16 03:56:56;;;;;;;28.38;14.63;;;;;;;6.47;100.00;102318.78;4977336;28;20042;-76
2023/12/16 03:59:23;;;;;;;30.23;13.82;;;;;;;6.48;100.00;102326.91;5009744;28;20025;-76
2023/12/16 04:01:49;;;;;;;36.85;16.98;;;;;;;6.51;100.00;102333.75;5009972;28;20377;-76
2023/12/16 04:04:16;;;;;;;28.40;14.02;;;;;;;6.48;100.00;102329.72;4994932;28;20038;-74
2023/12/16 04:06:45;;;;;;;31.80;14.52;;;;;;;6.45;100.00;102330.53;4994694;28;20122;-77
2023/12/16 04:09:12;;;;;;;30.80;15.25;;;;;;;6.46;100.00;102335.00;4994816;28;20038;-75
2023/12/16 04:11:48;;;;;;;32.42;14.70;;;;;;;6.49;100.00;102324.84;4995032;28;20030;-76
2023/12/16 04:14:14;;;;;;;28.42;12.80;;;;;;;6.44;100.00;102328.09;4994657;28;20026;-76
2023/12/16 04:16:40;;;;;;;29.70;14.43;;;;;;;6.44;100.00;102328.91;4994911;28;20030;-75
2023/12/16 04:19:07;;;;;;;26.75;13.65;;;;;;;6.51;100.00;102326.06;4992991;28;20062;-73
2023/12/16 04:21:33;;;;;;;29.30;14.20;;;;;;;6.54;100.00;102330.06;4992029;28;20120;-76
2023/12/16 04:23:59;;;;;;;29.92;13.40;;;;;;;6.51;100.00;102322.41;4992479;28;20379;-77
2023/12/16 04:26:24;;;;;;;30.80;13.05;;;;;;;6.49;100.00;102314.28;5008475;28;20050;-76
2023/12/16 04:28:50;;;;;;;38.53;15.02;;;;;;;6.41;100.00;102317.59;4994288;28;20088;-74
2023/12/16 04:31:17;;;;;;;31.95;13.43;;;;;;;6.37;100.00;102314.78;4993847;28;20037;-75
2023/12/16 04:33:43;;;;;;;29.95;13.88;;;;;;;6.39;100.00;102318.00;4994213;28;20030;-75
2023/12/16 04:36:27;;;;;;;27.90;12.27;;;;;;;6.49;100.00;102325.66;4994654;28;20026;-75
2023/12/16 04:38:52;;;;;;;36.67;14.35;;;;;;;6.55;100.00;102326.81;4994393;28;20484;-74
2023/12/16 04:41:18;;;;;;;24.58;12.10;;;;;;;6.57;100.00;102338.59;4994540;28;20105;-73
2023/12/16 04:43:43;;;;;;;27.00;14.02;;;;;;;6.59;100.00;102350.34;4976842;28;20022;-75
2023/12/16 04:46:10;;;;;;;31.40;12.95;;;;;;;6.55;100.00;102358.06;4992453;28;20038;-76
2023/12/16 04:48:36;;;;;;;29.45;12.85;;;;;;;6.53;100.00;102352.00;4993923;28;20117;-75
2023/12/16 04:51:05;;;;;;;29.27;12.85;;;;;;;6.52;100.00;102369.47;4993939;28;20494;-75
2023/12/16 04:53:33;;;;;;;27.50;12.48;;;;;;;6.47;100.00;102361.38;4993178;28;20476;-75
2023/12/16 04:56:00;;;;;;;25.30;13.02;;;;;;;6.52;100.00;102363.78;5008780;28;20038;-75
2023/12/16 04:58:29;;;;;;;28.60;11.85;;;;;;;6.56;100.00;102348.34;4992609;28;20038;-77
2023/12/16 05:00:54;;;;;;;26.15;12.48;;;;;;;6.56;100.00;102351.19;4994310;28;20374;-77
2023/12/16 05:03:19;;;;;;;24.08;11.95;;;;;;;6.64;100.00;102346.25;4994112;28;20105;-76
2023/12/16 05:05:46;;;;;;;25.65;11.45;;;;;;;6.62;100.00;102348.72;4993891;28;20053;-76
2023/12/16 05:08:12;;;;;;;21.90;11.80;;;;;;;6.63;100.00;102356.00;4994028;28;20034;-76
2023/12/16 05:10:47;;;;;;;26.02;12.65;;;;;;;6.68;100.00;102366.94;4994191;28;20366;-75
2023/12/16 05:13:14;;;;;;;23.02;11.15;;;;;;;6.64;100.00;102369.78;4993659;28;20034;-76
2023/12/16 05:15:48;;;;;;;22.50;11.48;;;;;;;6.72;100.00;102364.06;4976800;28;20058;-76
2023/12/16 05:18:15;;;;;;;27.90;11.85;;;;;;;6.72;100.00;102369.75;4975674;28;20054;-77
2023/12/16 05:20:40;;;;;;;19.70;10.68;;;;;;;6.72;100.00;102375.44;4993709;28;20562;-77
2023/12/16 05:23:10;;;;;;;25.60;12.02;;;;;;;6.76;100.00;102365.66;4992672;28;20133;-76
2023/12/16 05:25:46;;;;;;;26.55;11.63;;;;;;;6.76;100.00;102359.16;4992477;28;20057;-75
2023/12/16 05:28:11;;;;;;;23.23;11.73;;;;;;;6.77;100.00;102355.09;4976484;28;20058;-75
2023/12/16 05:30:39;;;;;;;21.40;11.20;;;;;;;6.78;100.00;102345.38;4976188;28;20042;-76
2023/12/16 05:33:06;;;;;;;24.80;12.43;;;;;;;6.77;100.00;102350.22;4993828;28;20030;-75
2023/12/16 05:35:32;;;;;;;20.85;10.30;;;;;;;6.75;100.00;102349.81;4992322;28;20065;-76
2023/12/16 05:37:59;;;;;;;26.02;12.13;;;;;;;6.76;100.00;102354.28;4993751;28;20022;-77
2023/12/16 05:40:26;;;;;;;22.60;11.13;;;;;;;6.79;100.00;102352.63;4992397;28;20030;-75
2023/12/16 05:42:51;;;;;;;24.83;11.13;;;;;;;6.78;100.00;102351.81;4993564;28;20030;-75
2023/12/16 05:45:18;;;;;;;25.55;10.98;;;;;;;6.78;100.00;102357.50;4993372;28;20065;-75
2023/12/16 05:47:45;;;;;;;23.65;12.32;;;;;;;6.76;100.00;102365.66;4993476;28;20042;-76
2023/12/16 05:50:12;;;;;;;29.23;12.10;;;;;;;6.75;100.00;102368.91;4992353;28;20042;-76
2023/12/16 05:52:39;;;;;;;25.23;12.27;;;;;;;6.75;100.00;102375.41;5000072;28;20049;-76
2023/12/16 05:55:05;;;;;;;24.73;11.82;;;;;;;6.79;100.00;102375.38;5013025;28;20440;-77
2023/12/16 05:57:33;;;;;;;24.42;11.45;;;;;;;6.82;100.00;102374.56;5015933;28;20053;-76
2023/12/16 05:59:58;;;;;;;26.13;11.90;;;;;;;6.81;100.00;102379.44;5017038;28;20030;-76
2023/12/16 06:02:25;;;;;;;25.15;11.07;;;;;;;6.86;100.00;102375.34;5017227;28;20026;-77
2023/12/16 06:04:51;;;;;;;25.67;13.02;;;;;;;6.85;100.00;102382.22;5015715;28;20033;-76
2023/12/16 06:07:19;;;;;;;27.42;13.05;;;;;;;6.78;100.00;102370.94;5017082;28;20377;-75
2023/12/16 06:09:45;;;;;;;20.35;12.27;;;;;;;6.86;100.00;102376.13;5015538;28;20441;-76
2023/12/16 06:12:12;;;;;;;24.67;12.68;;;;;;;6.86;100.00;102386.69;5016521;28;20033;-76
2023/12/16 06:14:39;;;;;;;27.20;12.63;;;;;;;6.89;100.00;102385.84;4998929;28;20029;-76
2023/12/16 06:17:07;;;;;;;28.95;13.82;;;;;;;6.85;100.00;102383.03;5016780;28;20533;-76
2023/12/16 06:19:33;;;;;;;25.35;13.43;;;;;;;6.82;100.00;102380.22;5015035;28;20054;-76
2023/12/16 06:21:59;;;;;;;23.63;12.50;;;;;;;6.82;100.00;102389.56;5016196;28;20395;-75
2023/12/16 06:24:26;;;;;;;22.17;11.75;;;;;;;6.79;100.00;102386.72;5016243;28;20034;-75
2023/12/16 06:26:53;;;;;;;32.72;13.93;;;;;;;6.81;100.00;102382.25;5015807;28;20037;-76
2023/12/16 06:29:18;;;;;;;21.27;11.85;;;;;;;6.81;100.00;102392.81;5014879;28;20427;-77
2023/12/16 06:31:45;;;;;;;35.22;13.35;;;;;;;6.83;100.00;102396.06;5015425;28;20045;-77
2023/12/16 06:34:12;;;;;;;26.58;12.90;;;;;;;6.85;100.00;102397.25;5014472;28;20057;-76
2023/12/16 06:36:37;;;;;;;32.13;13.20;;;;;;;6.86;100.00;102401.72;5014663;28;20069;-76
2023/12/16 06:39:03;;;;;;;27.85;14.23;;;;;;;6.80;100.00;102397.69;5015906;28;20081;-77
2023/12/16 06:41:37;;;;;;;31.30;15.13;;;;;;;6.82;100.00;102400.94;5016098;28;20034;-77
2023/12/16 06:44:04;;;;;;;28.70;13.65;;;;;;;6.80;100.00;102397.69;5016267;28;20598;-76
2023/12/16 06:46:29;;;;;;;29.50;14.30;;;;;;;6.85;100.00;102396.44;5016194;28;20037;-75
2023/12/16 06:48:56;;;;;;;24.80;14.10;;;;;;;6.86;100.00;102400.91;5015961;28;20471;-75
2023/12/16 06:51:21;;;;;;;30.63;14.02;;;;;;;6.89;100.00;102400.06;5015828;28;20029;-74
2023/12/16 06:53:47;;;;;;;28.60;14.07;;;;;;;6.87;100.00;102403.34;5015729;28;20442;-76
2023/12/16 06:56:14;;;;;;;25.58;13.07;;;;;;;6.87;100.00;102414.72;5014076;28;20487;-77
2023/12/16 06:58:41;;;;;;;31.98;14.20;;;;;;;6.87;100.00;102406.19;4997948;28;20038;-76
2023/12/16 07:01:11;;;;;;;28.50;13.75;;;;;;;6.94;100.00;102411.00;5014268;28;20125;-76
2023/12/16 07:03:37;;;;;;;27.05;13.38;;;;;;;6.87;100.00;102406.19;5014600;28;20041;-77
2023/12/16 07:06:04;;;;;;;29.60;13.00;;;;;;;6.90;100.00;102416.72;4998482;28;20037;-76
2023/12/16 07:08:32;;;;;;;24.95;13.18;;;;;;;6.90;100.00;102422.38;5014512;28;20485;-76
2023/12/16 07:10:58;;;;;;;24.15;12.90;;;;;;;6.93;100.00;102423.59;5016430;28;20057;-74
2023/12/16 07:13:25;;;;;;;29.88;13.40;;;;;;;6.97;100.00;102421.53;4998245;28;20432;-76
2023/12/16 07:15:52;;;;;;;28.70;13.70;;;;;;;6.95;100.00;102423.97;5015804;28;20022;-76
2023/12/16 07:18:17;;;;;;;27.42;13.52;;;;;;;6.95;100.00;102421.13;5014953;28;20073;-75
2023/12/16 07:20:42;;;;;;;28.17;13.73;;;;;;;6.90;100.00;102422.38;5015467;28;20018;-75
2023/12/16 07:23:09;;;;;;;23.40;13.30;;;;;;;6.96;100.00;102436.97;5015374;28;20468;-83
2023/12/16 07:25:35;;;;;;;33.15;14.70;;;;;;;6.96;100.00;102425.59;5015834;28;20034;-83
2023/12/16 07:28:01;;;;;;;34.28;13.50;;;;;;;7.00;100.00;102424.34;5015033;28;20021;-78
2023/12/16 07:30:27;;;;;;;33.35;15.32;;;;;;;7.02;100.00;102423.94;5014249;28;20041;-79
2023/12/16 07:32:54;;;;;;;32.90;14.18;;;;;;;7.04;100.00;102427.16;5015241;28;20030;-78
2023/12/16 07:35:19;;;;;;;30.88;13.68;;;;;;;7.04;100.00;102421.47;5015403;28;20030;-78
2023/12/16 07:37:45;;;;;;;28.27;13.27;;;;;;;7.10;100.00;102425.50;5015581;28;20473;-80
2023/12/16 07:40:11;;;;;;;28.02;13.68;;;;;;;7.07;100.00;102420.66;5013818;28;20080;-79
2023/12/16 07:42:37;;;;;;;29.13;14.68;;;;;;;7.17;100.00;102413.28;5014998;28;20040;-80
2023/12/16 07:45:04;;;;;;;26.00;12.25;;;;;;;7.28;100.00;102426.16;4997658;28;20034;-76
2023/12/16 07:47:31;;;;;;;31.02;13.95;;;;;;;7.32;100.00;102429.81;4997372;28;20585;-76
2023/12/16 07:49:57;;;;;;;29.58;14.02;;;;;;;7.39;100.00;102426.09;4997449;28;20426;-79
2023/12/16 07:52:24;;;;;;;33.00;13.88;;;;;;;7.44;100.00;102437.03;5015015;28;20396;-79
2023/12/16 07:54:58;;;;;;;35.53;15.40;;;;;;;7.49;100.00;102440.22;4997299;28;20033;-80
2023/12/16 07:57:24;;;;;;;29.05;14.57;;;;;;;7.49;100.00;102428.84;5013460;28;20037;-79
2023/12/16 07:59:50;;;;;;;25.15;13.65;;;;;;;7.45;100.00;102413.03;5014856;28;20037;-81
2023/12/16 08:02:19;;;;;;;26.58;13.65;;;;;;;7.49;100.00;102442.25;5014455;28;20420;-83
2023/12/16 08:04:45;;;;;;;23.92;12.63;;;;;;;7.53;100.00;102446.69;5015183;28;20025;-82
2023/12/16 08:07:15;;;;;;;31.25;13.52;;;;;;;7.67;100.00;102457.13;5015685;28;20066;-85
2023/12/16 08:09:41;;;;;;;30.88;13.77;;;;;;;7.72;100.00;102451.00;5014690;28;20038;-83
2023/12/16 08:12:08;;;;;;;32.65;14.00;;;;;;;7.75;100.00;102455.84;5013974;28;20038;-86
2023/12/16 08:14:34;;;;;;;26.73;14.35;;;;;;;7.78;100.00;102466.38;5016805;28;20482;-88
2023/12/16 08:17:00;;;;;;;26.80;13.20;;;;;;;7.83;100.00;102467.97;5013970;28;20029;-79
2023/12/16 08:19:27;;;;;;;24.33;13.77;;;;;;;7.90;100.00;102463.03;5011817;28;20038;-78
2023/12/16 08:21:53;;;;;;;31.10;13.38;;;;;;;7.92;100.00;102456.91;5012972;28;20026;-79
2023/12/16 08:24:21;;;;;;;26.35;13.30;;;;;;;7.96;100.00;102454.84;5014233;28;20040;-80
2023/12/16 08:26:50;;;;;;;28.42;12.73;;;;;;;7.98;100.00;102449.53;5014106;28;20053;-79
2023/12/16 08:29:15;;;;;;;27.73;13.27;;;;;;;8.05;100.00;102454.34;5012806;28;20379;-81
2023/12/16 08:31:41;;;;;;;28.67;13.25;;;;;;;8.04;100.00;102444.19;5014039;28;20465;-82
2023/12/16 08:34:08;;;;;;;28.15;13.82;;;;;;;8.00;100.00;102435.69;5014056;28;20427;-79
2023/12/16 08:36:35;;;;;;;27.67;13.10;;;;;;;8.11;100.00;102449.81;5029211;28;20382;-81
2023/12/16 08:39:02;;;;;;;30.15;13.80;;;;;;;8.15;100.00;102451.38;5014137;28;20030;-79
2023/12/16 08:41:31;;;;;;;33.20;14.00;;;;;;;8.13;100.00;102456.69;5012649;28;20026;-79
2023/12/16 08:43:57;;;;;;;31.08;14.55;;;;;;;8.02;100.00;102450.28;5014765;28;20083;-85
2023/12/16 08:46:24;;;;;;;26.25;13.98;;;;;;;7.97;100.00;102453.59;5014548;28;20026;-85
2023/12/16 08:48:53;;;;;;;29.02;13.77;;;;;;;8.04;100.00;102452.72;5014808;28;20054;-89
2023/12/16 08:51:26;;;;;;;35.50;14.55;;;;;;;8.04;100.00;102452.72;5014592;28;20038;-90
2023/12/16 08:53:53;;;;;;;26.00;14.48;;;;;;;8.08;100.00;102451.44;5000239;28;20041;-91
2023/12/16 08:56:19;;;;;;;35.03;14.68;;;;;;;8.08;100.00;102457.16;5024082;28;20026;-92
2023/12/16 08:58:46;;;;;;;35.75;13.50;;;;;;;8.05;100.00;102426.69;5017249;28;20527;-87
2023/12/16 09:01:11;;;;;;;30.02;13.18;;;;;;;8.05;100.00;102431.56;5016594;28;20029;-86
2023/12/16 09:03:37;;;;;;;29.42;13.23;;;;;;;8.10;100.00;102454.69;5019456;28;20104;-90
2023/12/16 09:06:05;;;;;;;28.00;13.02;;;;;;;8.32;100.00;102460.97;5019799;28;20499;-87
2023/12/16 09:08:32;;;;;;;25.75;13.43;;;;;;;8.36;100.00;102451.16;5032878;28;20030;-89
2023/12/16 09:11:05;;;;;;;30.40;12.82;;;;;;;8.41;100.00;102457.63;5016827;28;20041;-84
2023/12/16 09:13:39;;;;;;;27.77;14.15;;;;;;;8.28;100.00;102449.63;5012868;28;20041;-84
2023/12/16 09:16:05;;;;;;;29.63;12.98;;;;;;;8.30;100.00;102446.38;5012537;28;20519;-84
2023/12/16 09:18:30;;;;;;;26.30;13.18;;;;;;;8.36;100.00;102459.69;5013936;28;20134;-84
2023/12/16 09:20:56;;;;;;;31.88;13.30;;;;;;;8.33;100.00;102463.41;5012788;28;20049;-87
2023/12/16 09:23:23;;;;;;;29.02;12.95;;;;;;;8.33;100.00;102465.44;5014034;28;20038;-88
2023/12/16 09:25:53;;;;;;;26.33;12.90;;;;;;;8.32;100.00;102469.50;5012256;28;20033;-85
2023/12/16 09:28:18;;;;;;;27.45;12.70;;;;;;;8.43;100.00;102469.41;5014827;28;20471;-89
2023/12/16 09:30:46;;;;;;;27.75;12.50;;;;;;;8.48;100.00;102472.59;5014876;28;20057;-90
2023/12/16 09:33:13;;;;;;;31.00;13.55;;;;;;;8.52;100.00;102476.19;5018352;28;20021;-82
2023/12/16 09:35:41;;;;;;;26.05;14.57;;;;;;;8.52;100.00;102470.50;4998655;28;20038;-85
2023/12/16 09:38:08;;;;;;;37.28;13.68;;;;;;;8.58;100.00;102462.28;4979351;28;20471;-84
2023/12/16 09:40:35;;;;;;;29.20;12.90;;;;;;;8.59;100.00;102438.25;4996136;28;20070;-84
2023/12/16 09:43:13;;;;;;;27.15;12.80;;;;;;;8.69;100.00;102438.13;5012102;28;20324;-84
2023/12/16 09:45:47;;;;;;;29.73;12.23;;;;;;;8.82;100.00;102459.13;4979155;28;20039;-83
2023/12/16 09:48:17;;;;;;;28.05;12.60;;;;;;;8.77;100.00;102430.28;4997004;28;20047;-86
2023/12/16 09:50:43;;;;;;;23.17;12.00;;;;;;;8.88;100.00;102439.50;4993418;28;20042;-86
2023/12/16 09:53:09;;;;;;;27.85;12.65;;;;;;;8.99;100.00;102448.72;4960288;28;20043;-85
2023/12/16 09:55:37;;;;;;;29.98;12.07;;;;;;;9.03;100.00;102443.75;4979075;28;20038;-85
2023/12/16 09:58:04;;;;;;;25.27;11.15;;;;;;;9.20;100.00;102453.25;4997938;28;20082;-83
2023/12/16 10:00:33;;;;;;;26.48;12.38;;;;;;;9.23;100.00;102446.72;5010160;28;20037;-83
2023/12/16 10:02:59;;;;;;;28.73;12.52;;;;;;;9.25;100.00;102458.47;4977618;28;20035;-83
2023/12/16 10:05:33;;;;;;;25.95;10.52;;;;;;;9.26;100.00;102440.94;4976671;28;20490;-82
2023/12/16 10:08:04;;;;;;;25.27;11.88;;;;;;;9.40;100.00;102444.78;4995720;28;20034;-86
2023/12/16 10:10:30;;;;;;;23.33;11.30;;;;;;;9.35;100.00;102437.53;4995685;28;20038;-83
2023/12/16 10:12:55;;;;;;;24.25;11.00;;;;;;;9.42;100.00;102433.78;5011413;28;20041;-87
2023/12/16 10:15:30;;;;;;;26.30;13.05;;;;;;;9.60;100.00;102442.84;5010341;28;20042;-84
2023/12/16 10:17:58;;;;;;;26.33;11.82;;;;;;;9.53;100.00;102432.38;4995872;28;20078;-83
2023/12/16 10:20:25;;;;;;;26.73;10.85;;;;;;;9.68;100.00;102432.91;4998183;28;20411;-84
2023/12/16 10:22:53;;;;;;;28.33;11.38;;;;;;;9.76;100.00;102442.19;4996845;28;20059;-84
2023/12/16 10:25:19;;;;;;;22.42;10.90;;;;;;;9.76;100.00;102434.44;5029145;28;20038;-81
2023/12/16 10:27:45;;;;;;;24.25;10.85;;;;;;;9.72;100.00;102430.00;5013400;28;20046;-85
2023/12/16 10:30:11;;;;;;;25.67;10.93;;;;;;;9.84;100.00;102440.84;5013666;28;20087;-88
2023/12/16 10:32:39;;;;;;;24.02;9.15;;;;;;;9.81;100.00;102435.97;5030514;28;20031;-84
2023/12/16 10:35:05;;;;;;;18.83;8.77;;;;;;;9.75;100.00;102438.53;5011729;28;20039;-88
2023/12/16 10:37:32;;;;;;;24.55;10.02;;;;;;;9.71;100.00;102426.34;5011743;28;20052;-80
2023/12/16 10:39:58;;;;;;;18.95;8.88;;;;;;;9.75;100.00;102420.59;4979583;28;20069;-77
2023/12/16 10:42:24;;;;;;;27.80;9.23;;;;;;;9.72;100.00;102427.13;4995356;28;20065;-80
2023/12/16 10:44:53;;;;;;;17.90;7.85;;;;;;;9.64;100.00;102426.47;4995772;28;20066;-80
2023/12/16 10:47:19;;;;;;;18.63;8.30;;;;;;;9.67;100.00;102420.69;4995097;28;20088;-77
2023/12/16 10:49:46;;;;;;;17.67;6.82;;;;;;;9.80;100.00;102434.34;4994749;28;20046;-78
2023/12/16 10:52:13;;;;;;;18.13;8.23;;;;;;;9.86;100.00;102429.75;4994428;28;20105;-77
2023/12/16 10:54:44;;;;;;;16.35;8.07;;;;;;;9.84;100.00;102440.84;4994855;28;20096;-85
2023/12/16 10:57:34;;;;;;;19.40;7.55;;;;;;;9.87;100.00;102437.91;4978547;28;20050;-82
2023/12/16 11:00:07;;;;;;;19.80;8.02;;;;;;;9.82;100.00;102429.84;4993878;28;20419;-83
2023/12/16 11:02:38;;;;;;;16.35;8.15;;;;;;;9.90;100.00;102431.31;4994483;28;20503;-85
2023/12/16 11:05:36;;;;;;;18.55;8.23;;;;;;;9.83;100.00;102430.66;4994406;28;20035;-77
2023/12/16 11:08:10;;;;;;;18.90;7.85;;;;;;;9.92;100.00;102434.56;4998382;28;20491;-80
2023/12/16 11:10:36;;;;;;;18.30;8.45;;;;;;;10.03;100.00;102431.50;4995592;28;20042;-78
2023/12/16 11:13:04;;;;;;;19.00;7.57;;;;;;;10.10;100.00;102428.50;4994435;28;20061;-81